Data for 04/04/2013

Time Sea-Level Adjusted Pressure Absolute Pressure Temperature Relative Humidity Dew Point   
(mb) (inHg) (mb) (inHg) (C) (F) (%) (C) (F)
00:05 1019 30.09 848 25.04 7.2 44.9 51 -2.2 28
00:10 1019 30.09 848 25.04 7 44.6 52 -2.3 27.9
00:15 1019 30.09 848 25.04 6.9 44.5 52 -2.1 28.2
00:20 1019 30.09 848 25.04 6.9 44.4 52 -2.2 28
00:25 1019 30.09 848 25.04 6.9 44.5 52 -2.2 28
00:30 1019 30.09 848 25.04 7 44.5 52 -2.2 28
00:35 1019 30.09 848 25.04 6.8 44.3 52 -2.4 27.8
00:40 1019 30.09 848 25.04 6.8 44.2 52 -2.3 27.8
00:45 1019 30.09 848 25.04 6.8 44.2 52 -2.4 27.7
00:50 1019 30.09 848 25.04 6.8 44.2 53 -2.2 28
00:55 1019 30.09 848 25.04 6.7 44 53 -2.3 27.9
01:00 1019 30.09 848 25.04 6.6 43.9 53 -2.3 27.8
01:05 1019 30.09 848 25.04 6.6 43.9 53 -2.3 27.8
01:10 1019 30.09 848 25.04 6.6 43.8 53 -2.3 27.8
01:15 1019 30.09 848 25.04 6.5 43.8 53 -2.3 27.8
01:20 1019 30.09 848 25.04 6.6 43.9 52 -2.4 27.6
01:25 1019 30.09 848 25.04 6.6 44 53 -2.3 27.8
01:30 1019 30.09 848 25.04 6.6 43.9 54 -2.2 28.1
01:35 1019 30.09 848 25.04 6.4 43.5 54 -2.2 28.1
01:40 1019 30.09 848 25.04 6.3 43.3 54 -2.2 28
01:45 1019 30.09 848 25.04 6.3 43.3 54 -2.3 27.9
01:50 1018 30.06 848 25.04 6.3 43.4 54 -2.3 27.9
01:55 1018 30.06 848 25.04 6.4 43.4 53 -2.4 27.7
02:00 1018 30.06 848 25.04 6.5 43.6 53 -2.4 27.7
02:05 1019 30.09 848 25.04 6.6 43.8 53 -2.4 27.6
02:10 1019 30.09 848 25.04 6.6 43.9 53 -2.3 27.8
02:15 1019 30.09 848 25.04 6.5 43.7 53 -2.2 28
02:20 1018 30.06 848 25.04 6.5 43.6 53 -2.4 27.7
02:25 1018 30.06 848 25.04 6.5 43.7 54 -2.2 28.1
02:30 1018 30.06 848 25.04 6.3 43.3 54 -2.4 27.8
02:35 1018 30.06 848 25.04 6.3 43.3 54 -2.3 27.8
02:40 1018 30.06 848 25.04 6.3 43.3 54 -2.3 27.8
02:45 1018 30.06 848 25.04 6.2 43.1 54 -2.4 27.6
02:50 1018 30.06 848 25.04 6 42.9 55 -2.2 28
02:55 1018 30.06 848 25.04 5.8 42.5 57 -2 28.3
03:00 1019 30.09 848 25.04 5.5 42 58 -2.1 28.2
03:05 1019 30.09 848 25.04 5.4 41.7 58 -2.3 27.9
03:10 1019 30.09 848 25.04 5.5 41.8 59 -2 28.5
03:15 1019 30.09 848 25.04 5.3 41.6 59 -2 28.4
03:20 1019 30.09 848 25.04 5 41 61 -1.9 28.6
03:25 1019 30.09 848 25.04 4.6 40.2 63 -1.9 28.5
03:30 1019 30.09 848 25.04 4.3 39.7 64 -1.9 28.5
03:35 1019 30.09 848 25.04 4.3 39.8 63 -2.1 28.3
03:40 1019 30.09 848 25.04 4.3 39.8 63 -2 28.3
03:45 1019 30.09 848 25.04 4.1 39.4 63 -2.2 28
03:50 1019 30.09 848 25.04 4.3 39.7 62 -2.3 27.9
03:55 1019 30.09 848 25.04 4.2 39.6 63 -2.2 28.1
04:00 1019 30.09 848 25.04 4.1 39.3 64 -2.2 28.1
04:05 1019 30.09 848 25.04 4.1 39.4 63 -2.4 27.7
04:10 1019 30.09 848 25.04 4.3 39.7 62 -2.4 27.7
04:15 1019 30.09 848 25.04 4.6 40.3 60 -2.4 27.7
04:20 1019 30.09 848 25.04 4.6 40.3 61 -2.2 28
04:25 1019 30.09 848 25.04 4.6 40.3 62 -2 28.4
04:30 1019 30.09 848 25.04 4.4 39.8 63 -2 28.3
04:35 1019 30.09 848 25.04 4.1 39.5 63 -2.2 28
04:40 1019 30.09 848 25.04 4.5 40.1 61 -2.3 27.8
04:45 1019 30.09 848 25.04 4.9 40.9 60 -2.2 28.1
04:50 1019 30.09 848 25.04 4.6 40.3 63 -1.8 28.8
04:55 1019 30.09 848 25.04 4.1 39.4 64 -2.1 28.3
05:00 1018 30.06 848 25.04 4 39.2 62 -2.5 27.4
05:05 1018 30.06 848 25.04 4.3 39.8 62 -2.4 27.6
05:10 1018 30.06 848 25.04 4.5 40.1 61 -2.4 27.7
05:15 1018 30.06 848 25.04 4.5 40.1 61 -2.4 27.6
05:20 1018 30.06 848 25.04 4.5 40.1 60 -2.5 27.5
05:25 1018 30.06 848 25.04 4.6 40.3 60 -2.5 27.6
05:30 1018 30.06 848 25.04 4.5 40.1 61 -2.4 27.6
05:35 1018 30.06 848 25.04 4.5 40.1 60 -2.5 27.5
05:40 1019 30.09 848 25.04 4.5 40 61 -2.4 27.7
05:45 1019 30.09 848 25.04 4.5 40 60 -2.6 27.4
05:50 1018 30.06 848 25.04 4.6 40.3 60 -2.5 27.4
05:55 1018 30.06 848 25.04 4.7 40.4 60 -2.5 27.5
06:00 1018 30.06 848 25.04 4.7 40.5 60 -2.4 27.7
06:05 1018 30.06 848 25.04 4.6 40.2 60 -2.4 27.6
06:10 1018 30.06 848 25.04 4.5 40.1 61 -2.4 27.6
06:15 1018 30.06 848 25.04 4.5 40.1 60 -2.5 27.5
06:20 1018 30.06 848 25.04 4.5 40 61 -2.4 27.7
06:25 1018 30.06 848 25.04 4.5 40.1 60 -2.5 27.5
06:30 1018 30.06 848 25.04 4.7 40.5 60 -2.4 27.7
06:35 1018 30.06 848 25.04 4.7 40.5 60 -2.3 27.9
06:40 1018 30.06 848 25.04 4.7 40.5 60 -2.3 27.9
06:45 1018 30.06 848 25.04 4.8 40.6 60 -2.3 27.9
06:50 1018 30.06 848 25.04 5 41 58 -2.4 27.6
06:55 1018 30.06 848 25.04 5.3 41.6 57 -2.5 27.5
07:00 1018 30.06 848 25.04 5.5 42 56 -2.4 27.6
07:05 1018 30.06 848 25.04 5.6 42.1 57 -2.2 28
07:10 1018 30.06 848 25.04 5.6 42.1 57 -2.2 28
07:15 1018 30.06 848 25.04 5.8 42.4 56 -2.3 27.8
07:20 1018 30.06 848 25.04 6 42.9 55 -2.3 27.9
07:25 1018 30.06 848 25.04 6.3 43.4 54 -2.3 27.9
07:30 1018 30.06 847 25.01 6.5 43.7 54 -2.2 28
07:35 1018 30.06 847 25.01 6.8 44.3 53 -2.1 28.2
07:40 1018 30.06 847 25.01 7.2 45 51 -2.1 28.2
07:45 1018 30.06 847 25.01 7.6 45.7 49 -2.3 27.9
07:50 1018 30.06 847 25.01 8.1 46.5 48 -2.1 28.1
07:55 1018 30.06 847 25.01 8.6 47.4 48 -1.9 28.6
08:00 1018 30.06 847 25.01 8.7 47.6 46 -2.2 28.1
08:05 1018 30.06 847 25.01 9.3 48.7 45 -1.9 28.6
08:10 1018 30.06 847 25.01 9.3 48.7 47 -1.6 29.2
08:15 1018 30.06 847 25.01 9.4 49 46 -1.6 29.2
08:20 1018 30.06 847 25.01 9.5 49 44 -2 28.4
08:25 1018 30.06 847 25.01 9.8 49.6 44 -1.9 28.5
08:30 1018 30.06 847 25.01 10.8 51.4 40 -2.2 28
08:35 1018 30.06 847 25.01 11.7 53 37 -2.5 27.5
08:40 1018 30.06 847 25.01 12.4 54.3 35 -2.5 27.4
08:45 1018 30.06 847 25.01 13.2 55.7 34 -2.4 27.6
08:50 1018 30.06 847 25.01 13.5 56.3 33 -2.3 27.9
08:55 1018 30.06 847 25.01 13.4 56.1 34 -1.9 28.5
09:00 1018 30.06 847 25.01 12.9 55.3 35 -2.3 27.9
09:05 1018 30.06 847 25.01 13.1 55.6 33 -2.5 27.4
09:10 1018 30.06 847 25.01 13.3 55.9 34 -2.2 28
09:15 1018 30.06 847 25.01 13.1 55.6 33 -2.8 27
09:20 1018 30.06 847 25.01 13.2 55.7 34 -2.3 27.8
09:25 1018 30.06 847 25.01 12.9 55.2 36 -1.9 28.6
09:30 1018 30.06 847 25.01 13.1 55.6 34 -2.2 28.1
09:35 1018 30.06 847 25.01 12.5 54.4 39 -1.2 29.8
09:40 1018 30.06 847 25.01 12.3 54.1 38 -1.6 29.2
09:45 1018 30.06 847 25.01 12.4 54.4 37 -1.6 29.1
09:50 1018 30.06 847 25.01 12.5 54.4 40 -0.8 30.6
09:55 1018 30.06 847 25.01 13.1 55.7 35 -1.9 28.7
10:00 1018 30.06 847 25.01 13.2 55.7 34 -2.2 28
10:05 1018 30.06 847 25.01 13 55.4 34 -2.5 27.5
10:10 1018 30.06 847 25.01 13.1 55.5 32 -3.1 26.4
10:15 1018 30.06 847 25.01 12.9 55.3 32 -3.4 25.9
10:20 1017 30.03 847 25.01 13.4 56 30 -3.6 25.5
10:25 1017 30.03 847 25.01 13.8 56.8 31 -3 26.6
10:30 1017 30.03 847 25.01 14.7 58.4 30 -2.7 27.1
10:35 1017 30.03 847 25.01 14.9 58.8 29 -2.7 27.1
10:40 1017 30.03 847 25.01 14.8 58.7 30 -2.6 27.3
10:45 1017 30.03 847 25.01 14.1 57.3 31 -2.6 27.4
10:50 1017 30.03 846 24.98 14.5 58.1 31 -2.5 27.4
10:55 1017 30.03 846 24.98 14.7 58.5 31 -2 28.4
11:00 1017 30.03 846 24.98 14.6 58.3 30 -2.8 26.9
11:05 1017 30.03 846 24.98 14.8 58.7 30 -2.7 27.2
11:10 1017 30.03 846 24.98 14.9 58.7 29 -2.7 27.1
11:15 1017 30.03 846 24.98 14.8 58.7 29 -2.8 27
11:20 1017 30.03 846 24.98 15 58.9 28 -3.3 26.1
11:25 1017 30.03 846 24.98 15.3 59.5 28 -2.9 26.8
11:30 1017 30.03 846 24.98 15.2 59.3 29 -2.8 26.9
11:35 1017 30.03 846 24.98 15.1 59.2 28 -3.1 26.4
11:40 1017 30.03 846 24.98 15.3 59.5 26 -3.8 25.1
11:45 1017 30.03 846 24.98 16 60.8 28 -2.5 27.6
11:50 1016 30 846 24.98 16 60.8 27 -2.9 26.8
11:55 1016 30 846 24.98 16 60.8 26 -3.4 25.9
12:00 1016 30 846 24.98 16.5 61.6 25 -3.4 25.9
12:05 1016 30 845 24.95 16.9 62.3 25 -3.1 26.4
12:10 1016 30 845 24.95 17.1 62.7 24 -3.6 25.5
12:15 1016 30 845 24.95 16.6 61.8 26 -3.1 26.4
12:20 1016 30 845 24.95 16.7 62.1 24 -4 24.7
12:25 1016 30 845 24.95 17.3 63.1 23 -4 24.8
12:30 1016 30 845 24.95 16.6 61.9 24 -4 24.8
12:35 1016 30 845 24.95 17 62.5 23 -4 24.8
12:40 1016 30 845 24.95 16.6 62 25 -3.4 25.8
12:45 1016 30 845 24.95 17.2 62.9 23 -3.7 25.3
12:50 1015 29.97 845 24.95 17.3 63.2 23 -4 24.9
12:55 1015 29.97 845 24.95 17.6 63.6 22 -4.2 24.5
13:00 1015 29.97 845 24.95 17.4 63.3 23 -4.1 24.7
13:05 1015 29.97 845 24.95 17.4 63.2 23 -4.1 24.6
13:10 1015 29.97 845 24.95 17 62.6 23 -4.3 24.2
13:15 1015 29.97 844 24.92 17.2 62.9 22 -4.3 24.2
13:20 1015 29.97 844 24.92 17.3 63.1 23 -3.7 25.4
13:25 1015 29.97 844 24.92 17.9 64.3 21 -4.5 24
13:30 1015 29.97 844 24.92 18.4 65.1 20 -4.6 23.7
13:35 1015 29.97 844 24.92 18.7 65.6 20 -4.3 24.3
13:40 1015 29.97 844 24.92 18.4 65 20 -5 23
13:45 1015 29.97 844 24.92 18.7 65.6 19 -5.3 22.5
13:50 1015 29.97 844 24.92 19.1 66.3 19 -4.9 23.2
13:55 1015 29.97 844 24.92 19.2 66.5 19 -4.6 23.7
14:00 1015 29.97 844 24.92 18.7 65.6 20 -4.9 23.2
14:05 1014 29.94 844 24.92 18.5 65.2 20 -4.9 23.2
14:10 1014 29.94 844 24.92 18 64.3 21 -4.5 24
14:15 1014 29.94 843 24.89 18.5 65.3 19 -5.2 22.6
14:20 1014 29.94 843 24.89 18 64.5 20 -5.3 22.4
14:25 1014 29.94 843 24.89 17.7 63.8 20 -5.2 22.6
14:30 1014 29.94 843 24.89 17.6 63.7 20 -5.4 22.3
14:35 1014 29.94 843 24.89 17.9 64.3 21 -4.3 24.2
14:40 1014 29.94 843 24.89 18.1 64.7 21 -4.7 23.6
14:45 1014 29.94 843 24.89 18.1 64.6 20 -4.9 23.2
14:50 1014 29.94 843 24.89 17.6 63.8 20 -5.4 22.4
14:55 1014 29.94 843 24.89 17.9 64.3 20 -5.2 22.6
15:00 1014 29.94 843 24.89 17.8 64 20 -5.4 22.3
15:05 1014 29.94 843 24.89 18 64.4 19 -5.6 21.9
15:10 1014 29.94 843 24.89 18 64.5 19 -5.8 21.6
15:15 1014 29.94 843 24.89 18.3 64.9 17 -7.3 18.9
15:20 1014 29.94 843 24.89 18.3 64.9 16 -8.1 17.5
15:25 1014 29.94 843 24.89 18.2 64.7 15 -8.7 16.4
15:30 1013 29.91 843 24.89 18 64.4 17 -7.4 18.7
15:35 1013 29.91 843 24.89 18.1 64.6 17 -7.1 19.1
15:40 1013 29.91 843 24.89 18 64.4 19 -6 21.3
15:45 1014 29.94 843 24.89 17.8 64 19 -6 21.2
15:50 1014 29.94 843 24.89 17.5 63.6 19 -6 21.2
15:55 1014 29.94 843 24.89 17.3 63.1 21 -5.3 22.4
16:00 1014 29.94 843 24.89 17 62.6 21 -5.3 22.5
16:05 1014 29.94 843 24.89 17 62.5 22 -4.7 23.5
16:10 1014 29.94 843 24.89 16.7 62 24 -4 24.7
16:15 1014 29.94 843 24.89 16.4 61.4 24 -4.4 24.1
16:20 1014 29.94 843 24.89 16.4 61.5 23 -4.5 23.9
16:25 1014 29.94 843 24.89 16 60.8 29 -2 28.3
16:30 1014 29.94 843 24.89 15.4 59.7 31 -1.7 29
16:35 1014 29.94 843 24.89 15.1 59.1 32 -1.3 29.7
16:40 1014 29.94 844 24.92 14.7 58.4 34 -1 30.2
16:45 1014 29.94 844 24.92 14.4 57.9 35 -0.7 30.8
16:50 1014 29.94 844 24.92 14.1 57.4 36 -0.7 30.7
16:55 1014 29.94 844 24.92 14 57.2 36 -1 30.3
17:00 1014 29.94 843 24.89 13.9 57 35 -1.1 30.1
17:05 1014 29.94 843 24.89 13.9 57 36 -0.8 30.6
17:10 1014 29.94 843 24.89 14 57.2 34 -1.4 29.5
17:15 1014 29.94 843 24.89 14.1 57.3 34 -1.3 29.6
17:20 1014 29.94 843 24.89 14.1 57.4 34 -1.3 29.6
17:25 1014 29.94 843 24.89 14.1 57.4 35 -1.2 29.8
17:30 1014 29.94 843 24.89 14 57.2 35 -1.2 29.9
17:35 1014 29.94 843 24.89 13.9 57.1 35 -1.1 30
17:40 1014 29.94 843 24.89 14 57.1 35 -1.2 29.9
17:45 1013 29.91 843 24.89 13.9 57 35 -1.3 29.7
17:50 1013 29.91 843 24.89 13.8 56.9 35 -1.3 29.6
17:55 1013 29.91 843 24.89 13.9 57.1 34 -1.5 29.3
18:00 1013 29.91 843 24.89 13.9 57.1 34 -1.5 29.4
18:05 1013 29.91 842 24.86 14 57.2 34 -1.7 29
18:10 1013 29.91 842 24.86 14 57.2 34 -1.4 29.4
18:15 1013 29.91 842 24.86 13.9 57 34 -1.6 29.1
18:20 1013 29.91 842 24.86 13.8 56.8 35 -1.3 29.6
18:25 1013 29.91 842 24.86 13.7 56.6 36 -1.1 30
18:30 1013 29.91 842 24.86 13.5 56.3 37 -0.9 30.4
18:35 1013 29.91 842 24.86 13.3 56 38 -0.6 30.9
18:40 1013 29.91 842 24.86 13.2 55.7 39 -0.5 31.1
18:45 1012 29.88 842 24.86 13 55.5 40 -0.3 31.4
18:50 1012 29.88 841 24.83 12.9 55.3 40 -0.2 31.6
18:55 1012 29.88 841 24.83 12.8 55.1 40 -0.4 31.3
19:00 1012 29.88 841 24.83 12.7 54.9 40 -0.5 31
19:05 1012 29.88 841 24.83 12.8 55 39 -0.6 30.8
19:10 1012 29.88 841 24.83 12.8 55 40 -0.3 31.4
19:15 1012 29.88 841 24.83 12.6 54.7 40 -0.5 31.1
19:20 1012 29.88 841 24.83 12.6 54.7 40 -0.5 31.2
19:25 1012 29.88 841 24.83 12.6 54.6 40 -0.6 30.9
19:30 1012 29.88 841 24.83 12.6 54.7 40 -0.5 31.1
19:35 1012 29.88 841 24.83 12.5 54.5 40 -0.6 30.9
19:40 1012 29.88 841 24.83 12.5 54.4 40 -0.6 30.8
19:45 1012 29.88 841 24.83 12.4 54.3 40 -0.6 30.9
19:50 1012 29.88 841 24.83 12.3 54.2 41 -0.6 30.9
19:55 1012 29.88 841 24.83 12.3 54.2 40 -1 30.2
20:00 1012 29.88 841 24.83 12.3 54.2 39 -1.1 30
20:05 1012 29.88 841 24.83 12.3 54.2 39 -1.1 30
20:10 1012 29.88 841 24.83 12.6 54.7 37 -1.7 29
20:15 1012 29.88 841 24.83 13 55.4 37 -1.4 29.4
20:20 1012 29.88 841 24.83 12.9 55.2 38 -1.1 30.1
20:25 1012 29.88 841 24.83 12.9 55.2 38 -1 30.1
20:30 1011 29.85 841 24.83 13.3 56 37 -0.8 30.5
20:35 1011 29.85 841 24.83 13.7 56.6 36 -0.9 30.4
20:40 1012 29.88 841 24.83 13.8 56.9 37 -0.5 31.1
20:45 1011 29.85 841 24.83 13.7 56.7 37 -0.6 31
20:50 1011 29.85 841 24.83 13.7 56.6 37 -0.5 31
20:55 1011 29.85 841 24.83 13.6 56.4 38 -0.5 31.1
21:00 1011 29.85 841 24.83 13.4 56.2 39 -0.3 31.4
21:05 1011 29.85 840 24.81 13.3 56 38 -0.6 30.9
21:10 1011 29.85 840 24.81 13.4 56.1 38 -0.4 31.3
21:15 1011 29.85 840 24.81 13.3 55.9 39 -0.3 31.4
21:20 1011 29.85 840 24.81 13.2 55.8 39 -0.3 31.4
21:25 1011 29.85 840 24.81 13.2 55.7 39 -0.3 31.5
21:30 1011 29.85 841 24.83 13.1 55.6 40 -0.3 31.5
21:35 1011 29.85 841 24.83 13.2 55.7 39 -0.3 31.5
21:40 1011 29.85 841 24.83 13.3 55.9 39 -0.2 31.6
21:45 1011 29.85 841 24.83 13.3 56 38 -0.5 31.2
21:50 1011 29.85 841 24.83 13.7 56.6 37 -0.6 31
21:55 1011 29.85 841 24.83 13.9 57 37 -0.5 31
22:00 1011 29.85 841 24.83 13.9 57 37 -0.6 30.9
22:05 1011 29.85 841 24.83 13.9 57.1 37 -0.5 31.1
22:10 1011 29.85 841 24.83 13.9 57 37 -0.3 31.5
22:15 1011 29.85 841 24.83 13.8 56.9 38 -0.3 31.4
22:20 1011 29.85 841 24.83 13.8 56.8 38 -0.1 31.8
22:25 1011 29.85 840 24.81 13.6 56.5 39 -0.1 31.8
22:30 1011 29.85 841 24.83 13.6 56.5 39 -0.2 31.7
22:35 1011 29.85 841 24.83 13.5 56.4 39 -0 31.9
22:40 1011 29.85 841 24.83 13.4 56.1 40 0.1 32.1
22:45 1011 29.85 841 24.83 13.4 56.1 38 -0.6 30.9
22:50 1011 29.85 840 24.81 13.8 56.8 39 0 32
22:55 1011 29.85 841 24.83 13.7 56.7 39 -0 32
23:00 1011 29.85 841 24.83 13.5 56.4 40 0.2 32.3
23:05 1011 29.85 841 24.83 13.4 56.1 39 -0.1 31.8
23:10 1011 29.85 841 24.83 13.3 55.9 40 -0.1 31.8
23:15 1011 29.85 841 24.83 13.1 55.6 41 0.2 32.3
23:20 1011 29.85 841 24.83 12.9 55.1 41 -0 32
23:25 1011 29.85 841 24.83 12.9 55.3 41 0 32.1
23:30 1011 29.85 841 24.83 12.9 55.3 42 0.3 32.5
23:35 1011 29.85 841 24.83 13.3 55.9 40 0 32
23:40 1011 29.85 840 24.81 13.1 55.6 40 -0.1 31.7
23:45 1011 29.85 840 24.81 13 55.4 44 1.1 34
23:50 1011 29.85 840 24.81 12.8 55 47 1.7 35.1
23:55 1011 29.85 841 24.83 12.7 54.9 47 1.9 35.4
24:00 1011 29.85 841 24.83 12.3 54.1 54 3.2 37.8